sensor_id;sensor_type;location;lat;lon;timestamp;temperature;humidity
3648;DHT22;1840;48.892;15.312;2023-05-10T00:00:30;7.40;90.30
3648;DHT22;1840;48.892;15.312;2023-05-10T00:02:59;7.40;90.40
3648;DHT22;1840;48.892;15.312;2023-05-10T00:05:27;7.40;90.40
3648;DHT22;1840;48.892;15.312;2023-05-10T00:07:55;7.40;90.40
3648;DHT22;1840;48.892;15.312;2023-05-10T00:10:24;7.30;90.50
3648;DHT22;1840;48.892;15.312;2023-05-10T00:12:52;7.30;90.50
3648;DHT22;1840;48.892;15.312;2023-05-10T00:15:20;7.30;90.50
3648;DHT22;1840;48.892;15.312;2023-05-10T00:17:48;7.30;90.50
3648;DHT22;1840;48.892;15.312;2023-05-10T00:20:16;7.30;90.40
3648;DHT22;1840;48.892;15.312;2023-05-10T00:22:45;7.20;90.50
3648;DHT22;1840;48.892;15.312;2023-05-10T00:25:13;7.20;90.60
3648;DHT22;1840;48.892;15.312;2023-05-10T00:27:42;7.30;90.50
3648;DHT22;1840;48.892;15.312;2023-05-10T00:30:10;7.20;90.60
3648;DHT22;1840;48.892;15.312;2023-05-10T00:32:38;7.20;90.50
3648;DHT22;1840;48.892;15.312;2023-05-10T00:35:07;7.20;90.60
3648;DHT22;1840;48.892;15.312;2023-05-10T00:37:35;7.30;90.70
3648;DHT22;1840;48.892;15.312;2023-05-10T00:40:04;7.20;90.70
3648;DHT22;1840;48.892;15.312;2023-05-10T00:42:33;7.20;90.60
3648;DHT22;1840;48.892;15.312;2023-05-10T00:45:03;7.10;90.70
3648;DHT22;1840;48.892;15.312;2023-05-10T00:47:31;7.20;90.70
3648;DHT22;1840;48.892;15.312;2023-05-10T00:50:00;7.20;90.60
3648;DHT22;1840;48.892;15.312;2023-05-10T00:52:28;7.20;90.60
3648;DHT22;1840;48.892;15.312;2023-05-10T00:54:57;7.20;90.60
3648;DHT22;1840;48.892;15.312;2023-05-10T00:57:25;7.20;90.60
3648;DHT22;1840;48.892;15.312;2023-05-10T00:59:53;7.30;90.60
3648;DHT22;1840;48.892;15.312;2023-05-10T01:02:23;7.20;90.60
3648;DHT22;1840;48.892;15.312;2023-05-10T01:04:52;7.20;90.60
3648;DHT22;1840;48.892;15.312;2023-05-10T01:07:20;7.20;90.60
3648;DHT22;1840;48.892;15.312;2023-05-10T01:09:48;7.20;90.70
3648;DHT22;1840;48.892;15.312;2023-05-10T01:12:16;7.20;90.80
3648;DHT22;1840;48.892;15.312;2023-05-10T01:14:45;7.20;90.80
3648;DHT22;1840;48.892;15.312;2023-05-10T01:17:13;7.20;90.80
3648;DHT22;1840;48.892;15.312;2023-05-10T01:19:44;7.10;90.90
3648;DHT22;1840;48.892;15.312;2023-05-10T01:22:29;6.90;91.00
3648;DHT22;1840;48.892;15.312;2023-05-10T01:25:39;7.00;90.90
3648;DHT22;1840;48.892;15.312;2023-05-10T01:28:23;7.00;90.90
3648;DHT22;1840;48.892;15.312;2023-05-10T01:31:18;6.90;91.20
3648;DHT22;1840;48.892;15.312;2023-05-10T01:33:54;6.90;91.00
3648;DHT22;1840;48.892;15.312;2023-05-10T01:36:29;6.80;91.20
3648;DHT22;1840;48.892;15.312;2023-05-10T01:39:02;6.90;91.30
3648;DHT22;1840;48.892;15.312;2023-05-10T01:41:43;6.80;91.30
3648;DHT22;1840;48.892;15.312;2023-05-10T01:44:18;6.80;91.40
3648;DHT22;1840;48.892;15.312;2023-05-10T01:46:54;6.80;91.40
3648;DHT22;1840;48.892;15.312;2023-05-10T01:49:27;6.60;91.60
3648;DHT22;1840;48.892;15.312;2023-05-10T01:52:01;6.60;91.90
3648;DHT22;1840;48.892;15.312;2023-05-10T01:54:33;6.60;91.90
3648;DHT22;1840;48.892;15.312;2023-05-10T01:57:05;6.50;92.00
3648;DHT22;1840;48.892;15.312;2023-05-10T01:59:35;6.50;92.10
3648;DHT22;1840;48.892;15.312;2023-05-10T02:02:08;6.50;92.20
3648;DHT22;1840;48.892;15.312;2023-05-10T02:04:41;6.40;92.40
3648;DHT22;1840;48.892;15.312;2023-05-10T02:07:09;6.40;92.60
3648;DHT22;1840;48.892;15.312;2023-05-10T02:09:38;6.40;92.70
3648;DHT22;1840;48.892;15.312;2023-05-10T02:12:07;6.50;92.60
3648;DHT22;1840;48.892;15.312;2023-05-10T02:14:36;6.40;92.70
3648;DHT22;1840;48.892;15.312;2023-05-10T02:17:05;6.40;92.90
3648;DHT22;1840;48.892;15.312;2023-05-10T02:19:35;6.50;93.10
3648;DHT22;1840;48.892;15.312;2023-05-10T02:22:06;6.50;93.00
3648;DHT22;1840;48.892;15.312;2023-05-10T02:24:35;6.50;93.00
3648;DHT22;1840;48.892;15.312;2023-05-10T02:27:04;6.50;93.20
3648;DHT22;1840;48.892;15.312;2023-05-10T02:29:33;6.50;93.20
3648;DHT22;1840;48.892;15.312;2023-05-10T02:32:02;6.50;93.30
3648;DHT22;1840;48.892;15.312;2023-05-10T02:34:31;6.50;93.40
3648;DHT22;1840;48.892;15.312;2023-05-10T02:37:02;6.40;93.40
3648;DHT22;1840;48.892;15.312;2023-05-10T02:39:32;6.30;93.80
3648;DHT22;1840;48.892;15.312;2023-05-10T02:42:01;6.20;93.90
3648;DHT22;1840;48.892;15.312;2023-05-10T02:44:30;6.10;94.60
3648;DHT22;1840;48.892;15.312;2023-05-10T02:46:59;6.10;94.80
3648;DHT22;1840;48.892;15.312;2023-05-10T02:49:27;6.10;95.10
3648;DHT22;1840;48.892;15.312;2023-05-10T02:51:57;6.00;95.00
3648;DHT22;1840;48.892;15.312;2023-05-10T02:54:31;6.00;95.10
3648;DHT22;1840;48.892;15.312;2023-05-10T02:57:04;6.00;95.30
3648;DHT22;1840;48.892;15.312;2023-05-10T02:59:33;5.90;95.40
3648;DHT22;1840;48.892;15.312;2023-05-10T03:02:02;5.70;95.70
3648;DHT22;1840;48.892;15.312;2023-05-10T03:04:30;5.60;96.10
3648;DHT22;1840;48.892;15.312;2023-05-10T03:06:58;5.70;96.20
3648;DHT22;1840;48.892;15.312;2023-05-10T03:09:26;5.60;96.40
3648;DHT22;1840;48.892;15.312;2023-05-10T03:12:01;5.60;96.40
3648;DHT22;1840;48.892;15.312;2023-05-10T03:14:42;5.60;96.30
3648;DHT22;1840;48.892;15.312;2023-05-10T03:17:18;5.60;96.50
3648;DHT22;1840;48.892;15.312;2023-05-10T03:19:52;5.70;96.60
3648;DHT22;1840;48.892;15.312;2023-05-10T03:22:25;5.70;96.60
3648;DHT22;1840;48.892;15.312;2023-05-10T03:24:56;5.70;96.70
3648;DHT22;1840;48.892;15.312;2023-05-10T03:27:28;5.70;96.60
3648;DHT22;1840;48.892;15.312;2023-05-10T03:29:57;5.70;96.50
3648;DHT22;1840;48.892;15.312;2023-05-10T03:32:25;5.80;96.80
3648;DHT22;1840;48.892;15.312;2023-05-10T03:34:53;5.80;96.50
3648;DHT22;1840;48.892;15.312;2023-05-10T03:37:21;5.90;96.70
3648;DHT22;1840;48.892;15.312;2023-05-10T03:39:50;5.90;96.60
3648;DHT22;1840;48.892;15.312;2023-05-10T03:42:18;6.00;96.20
3648;DHT22;1840;48.892;15.312;2023-05-10T03:44:47;6.20;95.50
3648;DHT22;1840;48.892;15.312;2023-05-10T03:47:16;6.20;95.30
3648;DHT22;1840;48.892;15.312;2023-05-10T03:49:44;6.20;95.10
3648;DHT22;1840;48.892;15.312;2023-05-10T03:52:12;6.20;95.10
3648;DHT22;1840;48.892;15.312;2023-05-10T03:54:40;6.20;95.00
3648;DHT22;1840;48.892;15.312;2023-05-10T03:57:08;6.10;95.80
3648;DHT22;1840;48.892;15.312;2023-05-10T03:59:36;6.10;95.50
3648;DHT22;1840;48.892;15.312;2023-05-10T04:02:05;6.20;95.00
3648;DHT22;1840;48.892;15.312;2023-05-10T04:04:33;6.20;95.00
3648;DHT22;1840;48.892;15.312;2023-05-10T04:07:01;6.10;95.80
3648;DHT22;1840;48.892;15.312;2023-05-10T04:09:30;6.20;95.40
3648;DHT22;1840;48.892;15.312;2023-05-10T04:11:59;6.10;96.00
3648;DHT22;1840;48.892;15.312;2023-05-10T04:14:28;6.10;95.90
3648;DHT22;1840;48.892;15.312;2023-05-10T04:16:56;6.00;96.10
3648;DHT22;1840;48.892;15.312;2023-05-10T04:19:29;6.10;96.10
3648;DHT22;1840;48.892;15.312;2023-05-10T04:21:58;6.20;95.50
3648;DHT22;1840;48.892;15.312;2023-05-10T04:24:26;6.20;95.40
3648;DHT22;1840;48.892;15.312;2023-05-10T04:26:54;6.10;96.00
3648;DHT22;1840;48.892;15.312;2023-05-10T04:29:23;6.20;95.60
3648;DHT22;1840;48.892;15.312;2023-05-10T04:31:51;6.30;95.50
3648;DHT22;1840;48.892;15.312;2023-05-10T04:34:20;6.30;95.40
3648;DHT22;1840;48.892;15.312;2023-05-10T04:36:49;6.30;95.80
3648;DHT22;1840;48.892;15.312;2023-05-10T04:39:17;6.40;95.50
3648;DHT22;1840;48.892;15.312;2023-05-10T04:41:45;6.20;95.80
3648;DHT22;1840;48.892;15.312;2023-05-10T04:44:13;6.30;95.80
3648;DHT22;1840;48.892;15.312;2023-05-10T04:46:41;6.40;95.90
3648;DHT22;1840;48.892;15.312;2023-05-10T04:49:09;6.40;95.80
3648;DHT22;1840;48.892;15.312;2023-05-10T04:51:38;6.50;95.70
3648;DHT22;1840;48.892;15.312;2023-05-10T04:54:07;6.50;95.80
3648;DHT22;1840;48.892;15.312;2023-05-10T04:56:35;6.40;96.20
3648;DHT22;1840;48.892;15.312;2023-05-10T04:59:03;6.40;96.30
3648;DHT22;1840;48.892;15.312;2023-05-10T05:01:31;6.60;96.50
3648;DHT22;1840;48.892;15.312;2023-05-10T05:04:00;6.80;96.20
3648;DHT22;1840;48.892;15.312;2023-05-10T05:06:28;6.90;96.10
3648;DHT22;1840;48.892;15.312;2023-05-10T05:08:56;7.00;96.00
3648;DHT22;1840;48.892;15.312;2023-05-10T05:11:26;7.00;96.20
3648;DHT22;1840;48.892;15.312;2023-05-10T05:13:54;7.20;95.90
3648;DHT22;1840;48.892;15.312;2023-05-10T05:16:22;7.30;95.80
3648;DHT22;1840;48.892;15.312;2023-05-10T05:18:50;7.20;95.90
3648;DHT22;1840;48.892;15.312;2023-05-10T05:21:19;7.30;96.00
3648;DHT22;1840;48.892;15.312;2023-05-10T05:23:48;7.40;95.50
3648;DHT22;1840;48.892;15.312;2023-05-10T05:26:16;7.30;96.20
3648;DHT22;1840;48.892;15.312;2023-05-10T05:28:45;7.60;95.90
3648;DHT22;1840;48.892;15.312;2023-05-10T05:31:15;7.60;95.60
3648;DHT22;1840;48.892;15.312;2023-05-10T05:33:43;7.80;95.90
3648;DHT22;1840;48.892;15.312;2023-05-10T05:36:11;8.10;95.80
3648;DHT22;1840;48.892;15.312;2023-05-10T05:38:39;8.20;95.00
3648;DHT22;1840;48.892;15.312;2023-05-10T05:41:07;8.40;95.40
3648;DHT22;1840;48.892;15.312;2023-05-10T05:43:35;8.60;94.60
3648;DHT22;1840;48.892;15.312;2023-05-10T05:46:05;8.70;94.90
3648;DHT22;1840;48.892;15.312;2023-05-10T05:48:34;8.80;94.40
3648;DHT22;1840;48.892;15.312;2023-05-10T05:51:02;8.90;94.60
3648;DHT22;1840;48.892;15.312;2023-05-10T05:53:33;9.10;94.10
3648;DHT22;1840;48.892;15.312;2023-05-10T05:56:01;9.40;94.10
3648;DHT22;1840;48.892;15.312;2023-05-10T05:58:30;9.70;93.80
3648;DHT22;1840;48.892;15.312;2023-05-10T06:00:58;10.20;93.30
3648;DHT22;1840;48.892;15.312;2023-05-10T06:03:27;10.60;92.70
3648;DHT22;1840;48.892;15.312;2023-05-10T06:05:55;11.00;92.50
3648;DHT22;1840;48.892;15.312;2023-05-10T06:08:23;11.60;92.10
3648;DHT22;1840;48.892;15.312;2023-05-10T06:10:52;12.00;90.90
3648;DHT22;1840;48.892;15.312;2023-05-10T06:13:20;12.30;91.00
3648;DHT22;1840;48.892;15.312;2023-05-10T06:15:48;13.00;90.30
3648;DHT22;1840;48.892;15.312;2023-05-10T06:18:16;13.10;89.20
3648;DHT22;1840;48.892;15.312;2023-05-10T06:20:45;13.30;90.00
3648;DHT22;1840;48.892;15.312;2023-05-10T06:23:13;13.40;87.80
3648;DHT22;1840;48.892;15.312;2023-05-10T06:25:41;13.60;88.50
3648;DHT22;1840;48.892;15.312;2023-05-10T06:28:09;13.50;87.40
3648;DHT22;1840;48.892;15.312;2023-05-10T06:30:37;13.70;87.70
3648;DHT22;1840;48.892;15.312;2023-05-10T06:33:05;14.20;86.00
3648;DHT22;1840;48.892;15.312;2023-05-10T06:35:33;14.30;86.10
3648;DHT22;1840;48.892;15.312;2023-05-10T06:38:03;14.60;85.90
3648;DHT22;1840;48.892;15.312;2023-05-10T06:40:31;14.90;83.50
3648;DHT22;1840;48.892;15.312;2023-05-10T06:42:59;15.20;83.60
3648;DHT22;1840;48.892;15.312;2023-05-10T06:45:27;15.20;83.70
3648;DHT22;1840;48.892;15.312;2023-05-10T06:47:55;15.10;84.00
3648;DHT22;1840;48.892;15.312;2023-05-10T06:50:23;15.00;84.00
3648;DHT22;1840;48.892;15.312;2023-05-10T06:52:51;15.30;83.50
3648;DHT22;1840;48.892;15.312;2023-05-10T06:55:21;15.30;83.30
3648;DHT22;1840;48.892;15.312;2023-05-10T06:57:49;15.30;82.50
3648;DHT22;1840;48.892;15.312;2023-05-10T07:00:18;14.90;83.60
3648;DHT22;1840;48.892;15.312;2023-05-10T07:02:47;15.60;83.00
3648;DHT22;1840;48.892;15.312;2023-05-10T07:05:15;16.10;82.50
3648;DHT22;1840;48.892;15.312;2023-05-10T07:07:45;16.20;81.00
3648;DHT22;1840;48.892;15.312;2023-05-10T07:10:13;16.20;80.90
3648;DHT22;1840;48.892;15.312;2023-05-10T07:12:42;16.40;80.70
3648;DHT22;1840;48.892;15.312;2023-05-10T07:15:11;15.80;82.20
3648;DHT22;1840;48.892;15.312;2023-05-10T07:17:39;15.40;81.00
3648;DHT22;1840;48.892;15.312;2023-05-10T07:20:11;14.90;82.50
3648;DHT22;1840;48.892;15.312;2023-05-10T07:22:39;14.70;83.30
3648;DHT22;1840;48.892;15.312;2023-05-10T07:25:07;14.80;83.40
3648;DHT22;1840;48.892;15.312;2023-05-10T07:27:36;14.50;81.80
3648;DHT22;1840;48.892;15.312;2023-05-10T07:30:06;13.40;82.60
3648;DHT22;1840;48.892;15.312;2023-05-10T07:32:34;12.50;85.40
3648;DHT22;1840;48.892;15.312;2023-05-10T07:35:03;12.10;86.80
3648;DHT22;1840;48.892;15.312;2023-05-10T07:37:32;11.90;86.40
3648;DHT22;1840;48.892;15.312;2023-05-10T07:40:00;11.70;87.50
3648;DHT22;1840;48.892;15.312;2023-05-10T07:42:28;12.10;86.80
3648;DHT22;1840;48.892;15.312;2023-05-10T07:44:56;12.20;86.70
3648;DHT22;1840;48.892;15.312;2023-05-10T07:47:25;11.80;87.60
3648;DHT22;1840;48.892;15.312;2023-05-10T07:49:54;11.80;87.90
3648;DHT22;1840;48.892;15.312;2023-05-10T07:52:22;11.90;88.60
3648;DHT22;1840;48.892;15.312;2023-05-10T07:54:50;12.10;88.90
3648;DHT22;1840;48.892;15.312;2023-05-10T07:57:18;12.30;89.40
3648;DHT22;1840;48.892;15.312;2023-05-10T07:59:46;12.20;88.70
3648;DHT22;1840;48.892;15.312;2023-05-10T08:02:14;12.00;88.70
3648;DHT22;1840;48.892;15.312;2023-05-10T08:04:43;11.80;89.10
3648;DHT22;1840;48.892;15.312;2023-05-10T08:07:12;11.60;88.80
3648;DHT22;1840;48.892;15.312;2023-05-10T08:09:40;11.40;89.20
3648;DHT22;1840;48.892;15.312;2023-05-10T08:12:08;11.30;90.00
3648;DHT22;1840;48.892;15.312;2023-05-10T08:14:36;11.20;90.10
3648;DHT22;1840;48.892;15.312;2023-05-10T08:17:04;10.90;90.20
3648;DHT22;1840;48.892;15.312;2023-05-10T08:19:32;10.80;90.50
3648;DHT22;1840;48.892;15.312;2023-05-10T08:22:01;10.90;90.70
3648;DHT22;1840;48.892;15.312;2023-05-10T08:24:29;11.20;90.90
3648;DHT22;1840;48.892;15.312;2023-05-10T08:26:57;11.50;90.60
3648;DHT22;1840;48.892;15.312;2023-05-10T08:29:27;11.40;90.00
3648;DHT22;1840;48.892;15.312;2023-05-10T08:32:01;11.70;90.40
3648;DHT22;1840;48.892;15.312;2023-05-10T08:34:29;11.90;89.80
3648;DHT22;1840;48.892;15.312;2023-05-10T08:36:57;12.10;89.10
3648;DHT22;1840;48.892;15.312;2023-05-10T08:39:27;12.60;89.10
3648;DHT22;1840;48.892;15.312;2023-05-10T08:42:02;12.80;87.20
3648;DHT22;1840;48.892;15.312;2023-05-10T08:44:32;13.00;87.50
3648;DHT22;1840;48.892;15.312;2023-05-10T08:47:05;12.90;85.50
3648;DHT22;1840;48.892;15.312;2023-05-10T08:49:34;12.50;86.80
3648;DHT22;1840;48.892;15.312;2023-05-10T08:52:03;12.40;86.70
3648;DHT22;1840;48.892;15.312;2023-05-10T08:54:33;12.10;86.60
3648;DHT22;1840;48.892;15.312;2023-05-10T08:57:02;12.50;87.70
3648;DHT22;1840;48.892;15.312;2023-05-10T08:59:30;12.60;88.20
3648;DHT22;1840;48.892;15.312;2023-05-10T09:01:58;12.60;87.40
3648;DHT22;1840;48.892;15.312;2023-05-10T09:04:27;12.80;87.40
3648;DHT22;1840;48.892;15.312;2023-05-10T09:06:56;12.60;86.50
3648;DHT22;1840;48.892;15.312;2023-05-10T09:09:25;12.70;88.00
3648;DHT22;1840;48.892;15.312;2023-05-10T09:11:55;12.90;86.90
3648;DHT22;1840;48.892;15.312;2023-05-10T09:14:24;12.60;87.40
3648;DHT22;1840;48.892;15.312;2023-05-10T09:16:53;12.60;87.90
3648;DHT22;1840;48.892;15.312;2023-05-10T09:19:21;12.50;88.00
3648;DHT22;1840;48.892;15.312;2023-05-10T09:21:49;12.70;88.00
3648;DHT22;1840;48.892;15.312;2023-05-10T09:24:17;12.40;87.40
3648;DHT22;1840;48.892;15.312;2023-05-10T09:26:46;12.00;87.60
3648;DHT22;1840;48.892;15.312;2023-05-10T09:29:16;12.10;88.30
3648;DHT22;1840;48.892;15.312;2023-05-10T09:31:46;12.50;88.00
3648;DHT22;1840;48.892;15.312;2023-05-10T09:34:19;12.70;87.90
3648;DHT22;1840;48.892;15.312;2023-05-10T09:36:52;12.70;86.90
3648;DHT22;1840;48.892;15.312;2023-05-10T09:39:21;12.70;87.40
3648;DHT22;1840;48.892;15.312;2023-05-10T09:41:58;12.80;88.10
3648;DHT22;1840;48.892;15.312;2023-05-10T09:44:27;13.20;87.00
3648;DHT22;1840;48.892;15.312;2023-05-10T09:46:55;13.20;87.30
3648;DHT22;1840;48.892;15.312;2023-05-10T09:49:23;13.40;87.80
3648;DHT22;1840;48.892;15.312;2023-05-10T09:52:00;13.70;86.30
3648;DHT22;1840;48.892;15.312;2023-05-10T09:54:29;13.40;86.60
3648;DHT22;1840;48.892;15.312;2023-05-10T09:56:57;13.00;87.30
3648;DHT22;1840;48.892;15.312;2023-05-10T09:59:27;13.10;88.20
3648;DHT22;1840;48.892;15.312;2023-05-10T10:01:56;13.30;87.70
3648;DHT22;1840;48.892;15.312;2023-05-10T10:04:25;13.60;87.70
3648;DHT22;1840;48.892;15.312;2023-05-10T10:07:01;13.70;86.60
3648;DHT22;1840;48.892;15.312;2023-05-10T10:09:30;13.10;87.50
3648;DHT22;1840;48.892;15.312;2023-05-10T10:11:59;13.00;88.20
3648;DHT22;1840;48.892;15.312;2023-05-10T10:14:29;13.10;88.30
3648;DHT22;1840;48.892;15.312;2023-05-10T10:16:57;12.90;87.80
3648;DHT22;1840;48.892;15.312;2023-05-10T10:19:33;13.40;87.40
3648;DHT22;1840;48.892;15.312;2023-05-10T10:22:01;13.90;87.10
3648;DHT22;1840;48.892;15.312;2023-05-10T10:24:29;13.70;85.80
3648;DHT22;1840;48.892;15.312;2023-05-10T10:27:04;13.60;86.00
3648;DHT22;1840;48.892;15.312;2023-05-10T10:29:39;13.70;85.00
3648;DHT22;1840;48.892;15.312;2023-05-10T10:32:12;13.70;84.80
3648;DHT22;1840;48.892;15.312;2023-05-10T10:34:47;13.40;83.70
3648;DHT22;1840;48.892;15.312;2023-05-10T10:37:15;13.40;84.50
3648;DHT22;1840;48.892;15.312;2023-05-10T10:39:43;13.10;85.30
3648;DHT22;1840;48.892;15.312;2023-05-10T10:42:11;13.40;83.90
3648;DHT22;1840;48.892;15.312;2023-05-10T10:44:41;13.90;83.20
3648;DHT22;1840;48.892;15.312;2023-05-10T10:47:22;14.10;81.60
3648;DHT22;1840;48.892;15.312;2023-05-10T10:49:53;13.80;81.70
3648;DHT22;1840;48.892;15.312;2023-05-10T10:52:36;13.80;82.20
3648;DHT22;1840;48.892;15.312;2023-05-10T10:55:05;13.70;80.80
3648;DHT22;1840;48.892;15.312;2023-05-10T10:57:45;13.80;82.40
3648;DHT22;1840;48.892;15.312;2023-05-10T11:00:26;14.40;81.70
3648;DHT22;1840;48.892;15.312;2023-05-10T11:02:57;14.80;79.20
3648;DHT22;1840;48.892;15.312;2023-05-10T11:05:43;14.90;81.10
3648;DHT22;1840;48.892;15.312;2023-05-10T11:08:14;15.00;78.90
3648;DHT22;1840;48.892;15.312;2023-05-10T11:10:51;14.70;78.90
3648;DHT22;1840;48.892;15.312;2023-05-10T11:13:27;14.80;79.70
3648;DHT22;1840;48.892;15.312;2023-05-10T11:15:59;14.50;79.30
3648;DHT22;1840;48.892;15.312;2023-05-10T11:18:28;14.60;79.90
3648;DHT22;1840;48.892;15.312;2023-05-10T11:20:57;14.50;79.80
3648;DHT22;1840;48.892;15.312;2023-05-10T11:23:31;14.30;79.60
3648;DHT22;1840;48.892;15.312;2023-05-10T11:25:59;14.20;81.00
3648;DHT22;1840;48.892;15.312;2023-05-10T11:28:28;14.10;79.60
3648;DHT22;1840;48.892;15.312;2023-05-10T11:30:58;14.10;80.70
3648;DHT22;1840;48.892;15.312;2023-05-10T11:33:26;14.40;80.10
3648;DHT22;1840;48.892;15.312;2023-05-10T11:35:54;14.20;79.90
3648;DHT22;1840;48.892;15.312;2023-05-10T11:38:22;14.00;80.30
3648;DHT22;1840;48.892;15.312;2023-05-10T11:40:51;14.40;81.10
3648;DHT22;1840;48.892;15.312;2023-05-10T11:43:23;14.80;80.20
3648;DHT22;1840;48.892;15.312;2023-05-10T11:45:54;14.90;78.10
3648;DHT22;1840;48.892;15.312;2023-05-10T11:48:24;14.60;79.10
3648;DHT22;1840;48.892;15.312;2023-05-10T11:50:52;14.40;79.80
3648;DHT22;1840;48.892;15.312;2023-05-10T11:53:25;14.60;79.70
3648;DHT22;1840;48.892;15.312;2023-05-10T11:55:53;14.50;79.00
3648;DHT22;1840;48.892;15.312;2023-05-10T11:58:22;14.40;80.00
3648;DHT22;1840;48.892;15.312;2023-05-10T12:00:50;14.60;80.50
3648;DHT22;1840;48.892;15.312;2023-05-10T12:03:19;14.40;80.80
3648;DHT22;1840;48.892;15.312;2023-05-10T12:05:48;14.30;81.30
3648;DHT22;1840;48.892;15.312;2023-05-10T12:08:20;14.30;80.90
3648;DHT22;1840;48.892;15.312;2023-05-10T12:10:49;14.40;81.80
3648;DHT22;1840;48.892;15.312;2023-05-10T12:13:18;14.90;81.40
3648;DHT22;1840;48.892;15.312;2023-05-10T12:15:47;15.10;80.50
3648;DHT22;1840;48.892;15.312;2023-05-10T12:18:24;14.90;81.20
3648;DHT22;1840;48.892;15.312;2023-05-10T12:20:53;14.80;81.40
3648;DHT22;1840;48.892;15.312;2023-05-10T12:23:22;14.80;82.20
3648;DHT22;1840;48.892;15.312;2023-05-10T12:25:49;14.80;82.50
3648;DHT22;1840;48.892;15.312;2023-05-10T12:28:20;15.00;82.60
3648;DHT22;1840;48.892;15.312;2023-05-10T12:30:48;14.70;83.00
3648;DHT22;1840;48.892;15.312;2023-05-10T12:33:17;14.70;83.10
3648;DHT22;1840;48.892;15.312;2023-05-10T12:35:46;14.60;83.60
3648;DHT22;1840;48.892;15.312;2023-05-10T12:38:29;14.70;83.30
3648;DHT22;1840;48.892;15.312;2023-05-10T12:41:01;15.20;83.80
3648;DHT22;1840;48.892;15.312;2023-05-10T12:43:29;15.20;83.50
3648;DHT22;1840;48.892;15.312;2023-05-10T12:45:58;15.30;83.60
3648;DHT22;1840;48.892;15.312;2023-05-10T12:48:26;15.70;84.10
3648;DHT22;1840;48.892;15.312;2023-05-10T12:50:55;16.00;82.10
3648;DHT22;1840;48.892;15.312;2023-05-10T12:53:23;15.60;82.80
3648;DHT22;1840;48.892;15.312;2023-05-10T12:55:52;15.10;81.90
3648;DHT22;1840;48.892;15.312;2023-05-10T12:58:21;15.10;82.70
3648;DHT22;1840;48.892;15.312;2023-05-10T13:01:01;15.20;83.10
3648;DHT22;1840;48.892;15.312;2023-05-10T13:03:29;15.20;82.70
3648;DHT22;1840;48.892;15.312;2023-05-10T13:05:58;15.30;82.30
3648;DHT22;1840;48.892;15.312;2023-05-10T13:08:26;15.40;82.60
3648;DHT22;1840;48.892;15.312;2023-05-10T13:10:57;15.50;81.90
3648;DHT22;1840;48.892;15.312;2023-05-10T13:13:25;15.20;82.10
3648;DHT22;1840;48.892;15.312;2023-05-10T13:15:53;15.20;82.40
3648;DHT22;1840;48.892;15.312;2023-05-10T13:18:21;15.20;82.10
3648;DHT22;1840;48.892;15.312;2023-05-10T13:20:50;15.10;82.10
3648;DHT22;1840;48.892;15.312;2023-05-10T13:23:18;15.00;82.60
3648;DHT22;1840;48.892;15.312;2023-05-10T13:25:46;14.90;82.30
3648;DHT22;1840;48.892;15.312;2023-05-10T13:28:16;14.90;82.90
3648;DHT22;1840;48.892;15.312;2023-05-10T13:30:44;15.10;82.80
3648;DHT22;1840;48.892;15.312;2023-05-10T13:33:12;15.10;82.40
3648;DHT22;1840;48.892;15.312;2023-05-10T13:35:39;15.00;81.50
3648;DHT22;1840;48.892;15.312;2023-05-10T13:38:07;15.00;81.90
3648;DHT22;1840;48.892;15.312;2023-05-10T13:40:36;15.10;82.10
3648;DHT22;1840;48.892;15.312;2023-05-10T13:43:04;15.30;81.90
3648;DHT22;1840;48.892;15.312;2023-05-10T13:45:33;15.40;81.90
3648;DHT22;1840;48.892;15.312;2023-05-10T13:48:01;15.60;81.20
3648;DHT22;1840;48.892;15.312;2023-05-10T13:50:29;15.70;81.60
3648;DHT22;1840;48.892;15.312;2023-05-10T13:52:57;15.30;81.20
3648;DHT22;1840;48.892;15.312;2023-05-10T13:55:25;15.00;82.00
3648;DHT22;1840;48.892;15.312;2023-05-10T13:57:53;15.00;81.10
3648;DHT22;1840;48.892;15.312;2023-05-10T14:00:21;14.80;82.30
3648;DHT22;1840;48.892;15.312;2023-05-10T14:02:51;15.00;81.40
3648;DHT22;1840;48.892;15.312;2023-05-10T14:05:19;15.10;81.50
3648;DHT22;1840;48.892;15.312;2023-05-10T14:07:52;14.70;81.60
3648;DHT22;1840;48.892;15.312;2023-05-10T14:10:20;14.70;81.80
3648;DHT22;1840;48.892;15.312;2023-05-10T14:12:49;14.50;81.50
3648;DHT22;1840;48.892;15.312;2023-05-10T14:15:17;14.40;82.30
3648;DHT22;1840;48.892;15.312;2023-05-10T14:17:45;14.70;82.80
3648;DHT22;1840;48.892;15.312;2023-05-10T14:20:15;14.90;81.00
3648;DHT22;1840;48.892;15.312;2023-05-10T14:22:43;15.10;81.00
3648;DHT22;1840;48.892;15.312;2023-05-10T14:25:11;14.90;80.70
3648;DHT22;1840;48.892;15.312;2023-05-10T14:27:39;14.70;80.80
3648;DHT22;1840;48.892;15.312;2023-05-10T14:30:08;14.80;81.50
3648;DHT22;1840;48.892;15.312;2023-05-10T14:32:36;15.10;81.50
3648;DHT22;1840;48.892;15.312;2023-05-10T14:35:05;15.30;80.70
3648;DHT22;1840;48.892;15.312;2023-05-10T14:37:37;15.10;80.60
3648;DHT22;1840;48.892;15.312;2023-05-10T14:40:08;14.80;80.90
3648;DHT22;1840;48.892;15.312;2023-05-10T14:42:36;14.80;80.80
3648;DHT22;1840;48.892;15.312;2023-05-10T14:45:05;14.80;81.30
3648;DHT22;1840;48.892;15.312;2023-05-10T14:47:33;14.70;80.90
3648;DHT22;1840;48.892;15.312;2023-05-10T14:50:01;14.60;81.30
3648;DHT22;1840;48.892;15.312;2023-05-10T14:52:29;14.60;81.70
3648;DHT22;1840;48.892;15.312;2023-05-10T14:55:01;14.50;81.00
3648;DHT22;1840;48.892;15.312;2023-05-10T14:57:29;14.60;82.10
3648;DHT22;1840;48.892;15.312;2023-05-10T14:59:57;14.50;82.00
3648;DHT22;1840;48.892;15.312;2023-05-10T15:02:26;14.50;81.90
3648;DHT22;1840;48.892;15.312;2023-05-10T15:04:54;14.40;81.70
3648;DHT22;1840;48.892;15.312;2023-05-10T15:07:24;14.40;81.90
3648;DHT22;1840;48.892;15.312;2023-05-10T15:09:52;14.30;82.30
3648;DHT22;1840;48.892;15.312;2023-05-10T15:12:22;14.40;82.20
3648;DHT22;1840;48.892;15.312;2023-05-10T15:14:50;14.40;82.40
3648;DHT22;1840;48.892;15.312;2023-05-10T15:17:18;14.40;81.80
3648;DHT22;1840;48.892;15.312;2023-05-10T15:19:46;14.50;82.10
3648;DHT22;1840;48.892;15.312;2023-05-10T15:22:17;14.80;81.70
3648;DHT22;1840;48.892;15.312;2023-05-10T15:24:45;14.80;81.50
3648;DHT22;1840;48.892;15.312;2023-05-10T15:27:13;14.60;81.50
3648;DHT22;1840;48.892;15.312;2023-05-10T15:29:42;14.80;81.90
3648;DHT22;1840;48.892;15.312;2023-05-10T15:32:10;14.80;81.10
3648;DHT22;1840;48.892;15.312;2023-05-10T15:34:38;14.60;81.50
3648;DHT22;1840;48.892;15.312;2023-05-10T15:37:06;14.60;81.40
3648;DHT22;1840;48.892;15.312;2023-05-10T15:39:34;14.70;81.00
3648;DHT22;1840;48.892;15.312;2023-05-10T15:42:03;14.70;81.10
3648;DHT22;1840;48.892;15.312;2023-05-10T15:44:31;14.50;81.20
3648;DHT22;1840;48.892;15.312;2023-05-10T15:47:02;14.50;81.60
3648;DHT22;1840;48.892;15.312;2023-05-10T15:49:31;14.50;80.60
3648;DHT22;1840;48.892;15.312;2023-05-10T15:51:59;14.70;80.70
3648;DHT22;1840;48.892;15.312;2023-05-10T15:54:27;14.90;81.00
3648;DHT22;1840;48.892;15.312;2023-05-10T15:56:55;15.10;80.00
3648;DHT22;1840;48.892;15.312;2023-05-10T15:59:23;15.10;79.40
3648;DHT22;1840;48.892;15.312;2023-05-10T16:01:51;14.80;79.30
3648;DHT22;1840;48.892;15.312;2023-05-10T16:04:21;14.60;79.50
3648;DHT22;1840;48.892;15.312;2023-05-10T16:06:49;14.60;79.10